Arch Cape, OR

3:26 PM PST on December 19, 2014 (GMT -0800)
APRSWXNET Cannon Beach OR US | Change Station
CLOSE
Current Station
Personal Weather Station
Location: Cannon Beach, OR
Elevation: 22 ft
Nearby Weather Stations

Elev 22 ft 45.89 °N, 123.96 °W | Updated 28 minutes ago

Overcast
Overcast
50 °F
Feels Like 49 °F
N
4
Wind Variable Wind from South
Gusts 12.0 mph

Today
High -- | Low -- °F
--% Chance of Precip.
Yesterday
High -- | Low -- °F
Precip. -- in
7:53 AM 4:32 PM
Waning Crescent, 6% visible
Pressure 29.94 in
Visibility 10.0 miles
Clouds Few 2800 ft
Scattered Clouds 3800 ft
Mostly Cloudy 5500 ft
Windchill 49 °F
Dew Point 46 °F
Humidity 86%
Rainfall 1.05 in
Snow Depth Not available.
UV 0 out of 12
Pollen .50 out of 12
Air Quality Not available.
Flu Activity Not available.
METAR KAST 192255Z AUTO 15006KT 10SM FEW028 SCT038 BKN055 10/07 A2993 RMK AO2 RAB20E51 SLP136 P0002 T01000067

More Conditions Fewer Conditions

Pressure 29.94 in
Visibility 10.0 miles
Clouds Few 2800 ft
Scattered Clouds 3800 ft
Mostly Cloudy 5500 ft
Windchill 49 °F
Dew Point 46 °F
Humidity 86%
Rainfall 1.05 in
Snow Depth Not available.
UV 0 out of 12
Pollen .50 out of 12
Air Quality Not available.
Flu Activity Not available.
METAR KAST 192255Z AUTO 15006KT 10SM FEW028 SCT038 BKN055 10/07 A2993 RMK AO2 RAB20E51 SLP136 P0002 T01000067

More Conditions Fewer Conditions

10-Day Weather Forecast

Almanac

Astronomy

Dec. 19, 2014 Rise Set
Actual Time
Civil Twilight
Nautical Twilight
Astronomical Twilight
Moon
Length of Visible Light
Length of Day
Tomorrow will be .
, % of the Moon is Illuminated

Today's Extremes

State Highs State Lows

Community

WunderPhotos

Upload Photos

1,779,073 photos uploaded!

WunderBlogs® & News

Nearby

Air Quality

  Air Quality AQ Index Pollutant
Not available.

Snow Depth

Station Depth Elevation

Earthquake Activity

City Distance Mag. Time & Date
Minimum magnitude displayed is 2.5.

Coastal Water Temperatures

Place Temperature

Nearby Weather Stations